sensor_id;sensor_type;location;lat;lon;timestamp;P1;durP1;ratioP1;P2;durP2;ratioP2
3571;SDS011;7958;53.024;12.970;2022-11-04T00:00:09;5.50;;;4.30;;
3571;SDS011;7958;53.024;12.970;2022-11-04T00:02:36;8.00;;;4.90;;
3571;SDS011;7958;53.024;12.970;2022-11-04T00:05:04;9.60;;;4.63;;
3571;SDS011;7958;53.024;12.970;2022-11-04T00:07:31;7.63;;;4.83;;
3571;SDS011;7958;53.024;12.970;2022-11-04T00:10:15;9.97;;;4.77;;
3571;SDS011;7958;53.024;12.970;2022-11-04T00:13:01;7.70;;;4.70;;
3571;SDS011;7958;53.024;12.970;2022-11-04T00:15:27;7.73;;;4.60;;
3571;SDS011;7958;53.024;12.970;2022-11-04T00:18:13;10.80;;;5.00;;
3571;SDS011;7958;53.024;12.970;2022-11-04T00:20:41;9.80;;;5.50;;
3571;SDS011;7958;53.024;12.970;2022-11-04T00:23:25;13.23;;;6.10;;
3571;SDS011;7958;53.024;12.970;2022-11-04T00:26:09;6.30;;;5.03;;
3571;SDS011;7958;53.024;12.970;2022-11-04T00:28:53;12.53;;;5.37;;
3571;SDS011;7958;53.024;12.970;2022-11-04T00:31:19;11.57;;;5.70;;
3571;SDS011;7958;53.024;12.970;2022-11-04T00:34:03;8.67;;;5.27;;
3571;SDS011;7958;53.024;12.970;2022-11-04T00:36:31;8.10;;;5.03;;
3571;SDS011;7958;53.024;12.970;2022-11-04T00:38:57;6.13;;;5.03;;
3571;SDS011;7958;53.024;12.970;2022-11-04T00:41:23;8.90;;;5.60;;
3571;SDS011;7958;53.024;12.970;2022-11-04T00:43:54;8.63;;;5.07;;
3571;SDS011;7958;53.024;12.970;2022-11-04T00:46:21;7.30;;;4.90;;
3571;SDS011;7958;53.024;12.970;2022-11-04T00:48:48;10.50;;;6.20;;
3571;SDS011;7958;53.024;12.970;2022-11-04T00:51:14;12.67;;;5.37;;
3571;SDS011;7958;53.024;12.970;2022-11-04T00:53:42;5.33;;;4.70;;
3571;SDS011;7958;53.024;12.970;2022-11-04T00:56:08;9.30;;;4.90;;
3571;SDS011;7958;53.024;12.970;2022-11-04T00:58:35;7.47;;;5.27;;
3571;SDS011;7958;53.024;12.970;2022-11-04T01:01:05;8.37;;;5.70;;
3571;SDS011;7958;53.024;12.970;2022-11-04T01:03:32;8.47;;;4.90;;
3571;SDS011;7958;53.024;12.970;2022-11-04T01:05:59;8.10;;;5.77;;
3571;SDS011;7958;53.024;12.970;2022-11-04T01:08:25;12.27;;;5.70;;
3571;SDS011;7958;53.024;12.970;2022-11-04T01:10:53;9.43;;;5.77;;
3571;SDS011;7958;53.024;12.970;2022-11-04T01:13:19;10.23;;;5.97;;
3571;SDS011;7958;53.024;12.970;2022-11-04T01:15:45;9.77;;;5.53;;
3571;SDS011;7958;53.024;12.970;2022-11-04T01:18:11;8.27;;;5.60;;
3571;SDS011;7958;53.024;12.970;2022-11-04T01:20:38;9.33;;;5.40;;
3571;SDS011;7958;53.024;12.970;2022-11-04T01:23:04;10.20;;;7.10;;
3571;SDS011;7958;53.024;12.970;2022-11-04T01:25:30;8.20;;;5.40;;
3571;SDS011;7958;53.024;12.970;2022-11-04T01:27:58;7.60;;;5.47;;
3571;SDS011;7958;53.024;12.970;2022-11-04T01:30:24;13.97;;;5.83;;
3571;SDS011;7958;53.024;12.970;2022-11-04T01:32:51;8.10;;;5.80;;
3571;SDS011;7958;53.024;12.970;2022-11-04T01:35:17;6.87;;;5.67;;
3571;SDS011;7958;53.024;12.970;2022-11-04T01:37:44;9.90;;;7.17;;
3571;SDS011;7958;53.024;12.970;2022-11-04T01:40:10;7.43;;;5.90;;
3571;SDS011;7958;53.024;12.970;2022-11-04T01:42:36;10.00;;;5.90;;
3571;SDS011;7958;53.024;12.970;2022-11-04T01:45:07;10.43;;;6.97;;
3571;SDS011;7958;53.024;12.970;2022-11-04T01:47:38;10.97;;;6.03;;
3571;SDS011;7958;53.024;12.970;2022-11-04T01:50:07;11.67;;;6.67;;
3571;SDS011;7958;53.024;12.970;2022-11-04T01:52:35;8.30;;;5.73;;
3571;SDS011;7958;53.024;12.970;2022-11-04T01:55:05;8.40;;;6.13;;
3571;SDS011;7958;53.024;12.970;2022-11-04T01:57:35;6.70;;;5.50;;
3571;SDS011;7958;53.024;12.970;2022-11-04T02:00:07;11.73;;;5.60;;
3571;SDS011;7958;53.024;12.970;2022-11-04T02:02:35;8.50;;;6.80;;
3571;SDS011;7958;53.024;12.970;2022-11-04T02:05:02;10.13;;;6.23;;
3571;SDS011;7958;53.024;12.970;2022-11-04T02:07:29;9.30;;;6.10;;
3571;SDS011;7958;53.024;12.970;2022-11-04T02:09:55;10.50;;;6.70;;
3571;SDS011;7958;53.024;12.970;2022-11-04T02:12:22;9.17;;;6.13;;
3571;SDS011;7958;53.024;12.970;2022-11-04T02:15:07;8.83;;;5.50;;
3571;SDS011;7958;53.024;12.970;2022-11-04T02:17:48;5.50;;;4.90;;
3571;SDS011;7958;53.024;12.970;2022-11-04T02:20:25;15.77;;;6.13;;
3571;SDS011;7958;53.024;12.970;2022-11-04T02:26:11;9.80;;;6.30;;
3571;SDS011;7958;53.024;12.970;2022-11-04T02:29:09;10.83;;;6.33;;
3571;SDS011;7958;53.024;12.970;2022-11-04T02:31:42;8.87;;;5.90;;
3571;SDS011;7958;53.024;12.970;2022-11-04T02:34:13;12.13;;;5.90;;
3571;SDS011;7958;53.024;12.970;2022-11-04T02:36:45;7.43;;;6.20;;
3571;SDS011;7958;53.024;12.970;2022-11-04T02:39:19;10.07;;;6.60;;
3571;SDS011;7958;53.024;12.970;2022-11-04T02:41:50;8.10;;;6.43;;
3571;SDS011;7958;53.024;12.970;2022-11-04T02:44:20;10.63;;;6.40;;
3571;SDS011;7958;53.024;12.970;2022-11-04T02:46:48;8.80;;;6.70;;
3571;SDS011;7958;53.024;12.970;2022-11-04T02:49:17;15.53;;;6.37;;
3571;SDS011;7958;53.024;12.970;2022-11-04T02:51:46;9.00;;;5.43;;
3571;SDS011;7958;53.024;12.970;2022-11-04T02:54:15;8.50;;;6.60;;
3571;SDS011;7958;53.024;12.970;2022-11-04T02:56:45;11.40;;;6.73;;
3571;SDS011;7958;53.024;12.970;2022-11-04T02:59:14;8.70;;;6.17;;
3571;SDS011;7958;53.024;12.970;2022-11-04T03:01:45;10.73;;;6.40;;
3571;SDS011;7958;53.024;12.970;2022-11-04T03:04:13;13.70;;;7.03;;
3571;SDS011;7958;53.024;12.970;2022-11-04T03:06:41;14.47;;;8.27;;
3571;SDS011;7958;53.024;12.970;2022-11-04T03:09:09;8.90;;;7.17;;
3571;SDS011;7958;53.024;12.970;2022-11-04T03:11:37;9.93;;;7.13;;
3571;SDS011;7958;53.024;12.970;2022-11-04T03:14:07;18.67;;;6.97;;
3571;SDS011;7958;53.024;12.970;2022-11-04T03:16:37;11.87;;;7.47;;
3571;SDS011;7958;53.024;12.970;2022-11-04T03:19:08;9.87;;;7.43;;
3571;SDS011;7958;53.024;12.970;2022-11-04T03:21:39;11.77;;;6.90;;
3571;SDS011;7958;53.024;12.970;2022-11-04T03:24:08;12.17;;;7.30;;
3571;SDS011;7958;53.024;12.970;2022-11-04T03:26:36;12.10;;;7.30;;
3571;SDS011;7958;53.024;12.970;2022-11-04T03:29:13;9.87;;;7.40;;
3571;SDS011;7958;53.024;12.970;2022-11-04T03:31:46;10.07;;;7.43;;
3571;SDS011;7958;53.024;12.970;2022-11-04T03:34:16;13.50;;;7.20;;
3571;SDS011;7958;53.024;12.970;2022-11-04T03:36:42;8.23;;;6.97;;
3571;SDS011;7958;53.024;12.970;2022-11-04T03:39:08;12.33;;;7.70;;
3571;SDS011;7958;53.024;12.970;2022-11-04T03:41:36;12.80;;;7.43;;
3571;SDS011;7958;53.024;12.970;2022-11-04T03:44:05;20.27;;;7.43;;
3571;SDS011;7958;53.024;12.970;2022-11-04T03:46:32;10.83;;;7.57;;
3571;SDS011;7958;53.024;12.970;2022-11-04T03:48:59;14.77;;;8.03;;
3571;SDS011;7958;53.024;12.970;2022-11-04T03:51:27;12.33;;;8.43;;
3571;SDS011;7958;53.024;12.970;2022-11-04T03:53:54;10.53;;;7.37;;
3571;SDS011;7958;53.024;12.970;2022-11-04T03:56:28;13.37;;;8.30;;
3571;SDS011;7958;53.024;12.970;2022-11-04T03:59:07;13.70;;;8.50;;
3571;SDS011;7958;53.024;12.970;2022-11-04T04:01:43;12.83;;;7.90;;
3571;SDS011;7958;53.024;12.970;2022-11-04T04:04:13;10.00;;;7.83;;
3571;SDS011;7958;53.024;12.970;2022-11-04T04:06:45;12.20;;;7.90;;
3571;SDS011;7958;53.024;12.970;2022-11-04T04:09:17;11.87;;;7.87;;
3571;SDS011;7958;53.024;12.970;2022-11-04T04:11:46;12.27;;;7.40;;
3571;SDS011;7958;53.024;12.970;2022-11-04T04:14:18;17.00;;;8.50;;
3571;SDS011;7958;53.024;12.970;2022-11-04T04:17:02;11.47;;;7.90;;
3571;SDS011;7958;53.024;12.970;2022-11-04T04:19:30;13.53;;;8.40;;
3571;SDS011;7958;53.024;12.970;2022-11-04T04:21:59;17.07;;;8.97;;
3571;SDS011;7958;53.024;12.970;2022-11-04T04:24:30;18.33;;;8.90;;
3571;SDS011;7958;53.024;12.970;2022-11-04T04:27:15;15.43;;;7.50;;
3571;SDS011;7958;53.024;12.970;2022-11-04T04:29:56;14.57;;;8.17;;
3571;SDS011;7958;53.024;12.970;2022-11-04T04:32:23;16.53;;;7.70;;
3571;SDS011;7958;53.024;12.970;2022-11-04T04:34:51;10.10;;;7.43;;
3571;SDS011;7958;53.024;12.970;2022-11-04T04:37:40;12.10;;;7.27;;
3571;SDS011;7958;53.024;12.970;2022-11-04T04:40:07;15.37;;;7.77;;
3571;SDS011;7958;53.024;12.970;2022-11-04T04:42:52;11.60;;;8.67;;
3571;SDS011;7958;53.024;12.970;2022-11-04T04:45:34;13.80;;;8.20;;
3571;SDS011;7958;53.024;12.970;2022-11-04T04:48:01;11.13;;;8.27;;
3571;SDS011;7958;53.024;12.970;2022-11-04T04:50:29;12.37;;;8.60;;
3571;SDS011;7958;53.024;12.970;2022-11-04T04:52:59;10.23;;;7.43;;
3571;SDS011;7958;53.024;12.970;2022-11-04T04:55:27;12.53;;;8.33;;
3571;SDS011;7958;53.024;12.970;2022-11-04T04:57:54;15.33;;;9.47;;
3571;SDS011;7958;53.024;12.970;2022-11-04T05:00:20;16.13;;;7.80;;
3571;SDS011;7958;53.024;12.970;2022-11-04T05:02:47;13.53;;;8.97;;
3571;SDS011;7958;53.024;12.970;2022-11-04T05:05:13;12.47;;;8.47;;
3571;SDS011;7958;53.024;12.970;2022-11-04T05:07:40;12.30;;;8.23;;
3571;SDS011;7958;53.024;12.970;2022-11-04T05:10:09;13.50;;;7.93;;
3571;SDS011;7958;53.024;12.970;2022-11-04T05:12:36;14.97;;;8.03;;
3571;SDS011;7958;53.024;12.970;2022-11-04T05:15:20;13.90;;;8.50;;
3571;SDS011;7958;53.024;12.970;2022-11-04T05:17:47;14.90;;;8.70;;
3571;SDS011;7958;53.024;12.970;2022-11-04T05:20:13;12.83;;;8.23;;
3571;SDS011;7958;53.024;12.970;2022-11-04T05:22:40;13.40;;;8.83;;
3571;SDS011;7958;53.024;12.970;2022-11-04T05:25:08;13.10;;;8.47;;
3571;SDS011;7958;53.024;12.970;2022-11-04T05:27:34;13.17;;;7.87;;
3571;SDS011;7958;53.024;12.970;2022-11-04T05:30:01;14.50;;;8.17;;
3571;SDS011;7958;53.024;12.970;2022-11-04T05:32:27;13.40;;;8.10;;
3571;SDS011;7958;53.024;12.970;2022-11-04T05:34:54;12.43;;;7.97;;
3571;SDS011;7958;53.024;12.970;2022-11-04T05:37:20;9.70;;;7.70;;
3571;SDS011;7958;53.024;12.970;2022-11-04T05:39:46;9.77;;;7.83;;
3571;SDS011;7958;53.024;12.970;2022-11-04T05:42:14;11.70;;;7.87;;
3571;SDS011;7958;53.024;12.970;2022-11-04T05:44:40;10.87;;;7.50;;
3571;SDS011;7958;53.024;12.970;2022-11-04T05:47:07;15.30;;;7.33;;
3571;SDS011;7958;53.024;12.970;2022-11-04T05:49:33;9.07;;;7.73;;
3571;SDS011;7958;53.024;12.970;2022-11-04T05:51:59;8.10;;;7.23;;
3571;SDS011;7958;53.024;12.970;2022-11-04T05:54:25;15.93;;;8.20;;
3571;SDS011;7958;53.024;12.970;2022-11-04T05:56:52;12.33;;;8.80;;
3571;SDS011;7958;53.024;12.970;2022-11-04T05:59:20;16.60;;;9.10;;
3571;SDS011;7958;53.024;12.970;2022-11-04T06:01:46;11.90;;;8.27;;
3571;SDS011;7958;53.024;12.970;2022-11-04T06:04:14;15.10;;;8.17;;
3571;SDS011;7958;53.024;12.970;2022-11-04T06:06:41;14.23;;;7.57;;
3571;SDS011;7958;53.024;12.970;2022-11-04T06:09:08;11.63;;;8.53;;
3571;SDS011;7958;53.024;12.970;2022-11-04T06:11:35;11.50;;;8.27;;
3571;SDS011;7958;53.024;12.970;2022-11-04T06:14:03;12.70;;;9.87;;
3571;SDS011;7958;53.024;12.970;2022-11-04T06:16:31;13.93;;;8.97;;
3571;SDS011;7958;53.024;12.970;2022-11-04T06:18:57;12.43;;;8.70;;
3571;SDS011;7958;53.024;12.970;2022-11-04T06:21:24;15.67;;;10.43;;
3571;SDS011;7958;53.024;12.970;2022-11-04T06:23:53;12.40;;;9.00;;
3571;SDS011;7958;53.024;12.970;2022-11-04T06:26:20;12.00;;;9.60;;
3571;SDS011;7958;53.024;12.970;2022-11-04T06:28:47;15.40;;;10.70;;
3571;SDS011;7958;53.024;12.970;2022-11-04T06:31:14;19.10;;;10.63;;
3571;SDS011;7958;53.024;12.970;2022-11-04T06:33:42;14.93;;;10.73;;
3571;SDS011;7958;53.024;12.970;2022-11-04T06:36:10;17.40;;;9.83;;
3571;SDS011;7958;53.024;12.970;2022-11-04T06:38:38;17.47;;;11.10;;
3571;SDS011;7958;53.024;12.970;2022-11-04T06:41:04;13.17;;;9.47;;
3571;SDS011;7958;53.024;12.970;2022-11-04T06:43:32;12.63;;;10.00;;
3571;SDS011;7958;53.024;12.970;2022-11-04T06:45:58;14.53;;;9.90;;
3571;SDS011;7958;53.024;12.970;2022-11-04T06:48:26;14.50;;;10.57;;
3571;SDS011;7958;53.024;12.970;2022-11-04T06:50:56;15.70;;;11.40;;
3571;SDS011;7958;53.024;12.970;2022-11-04T06:53:23;15.77;;;11.20;;
3571;SDS011;7958;53.024;12.970;2022-11-04T06:55:49;16.20;;;9.83;;
3571;SDS011;7958;53.024;12.970;2022-11-04T06:58:16;15.30;;;10.50;;
3571;SDS011;7958;53.024;12.970;2022-11-04T07:00:43;17.47;;;11.10;;
3571;SDS011;7958;53.024;12.970;2022-11-04T07:03:10;19.07;;;12.67;;
3571;SDS011;7958;53.024;12.970;2022-11-04T07:05:36;16.10;;;12.07;;
3571;SDS011;7958;53.024;12.970;2022-11-04T07:08:04;15.33;;;11.53;;
3571;SDS011;7958;53.024;12.970;2022-11-04T07:10:30;15.40;;;11.57;;
3571;SDS011;7958;53.024;12.970;2022-11-04T07:12:57;19.37;;;10.80;;
3571;SDS011;7958;53.024;12.970;2022-11-04T07:15:23;19.77;;;11.63;;
3571;SDS011;7958;53.024;12.970;2022-11-04T07:17:50;14.90;;;10.70;;
3571;SDS011;7958;53.024;12.970;2022-11-04T07:20:16;14.73;;;10.57;;
3571;SDS011;7958;53.024;12.970;2022-11-04T07:22:42;16.70;;;9.77;;
3571;SDS011;7958;53.024;12.970;2022-11-04T07:25:10;17.40;;;11.13;;
3571;SDS011;7958;53.024;12.970;2022-11-04T07:27:37;14.77;;;10.57;;
3571;SDS011;7958;53.024;12.970;2022-11-04T07:30:04;17.57;;;11.33;;
3571;SDS011;7958;53.024;12.970;2022-11-04T07:32:32;18.47;;;11.00;;
3571;SDS011;7958;53.024;12.970;2022-11-04T07:34:58;17.50;;;11.03;;
3571;SDS011;7958;53.024;12.970;2022-11-04T07:37:24;15.23;;;10.90;;
3571;SDS011;7958;53.024;12.970;2022-11-04T07:39:51;16.73;;;10.77;;
3571;SDS011;7958;53.024;12.970;2022-11-04T07:42:19;15.73;;;11.73;;
3571;SDS011;7958;53.024;12.970;2022-11-04T07:44:45;16.20;;;10.83;;
3571;SDS011;7958;53.024;12.970;2022-11-04T07:47:15;17.13;;;11.60;;
3571;SDS011;7958;53.024;12.970;2022-11-04T07:49:41;16.63;;;10.87;;
3571;SDS011;7958;53.024;12.970;2022-11-04T07:52:08;16.90;;;11.97;;
3571;SDS011;7958;53.024;12.970;2022-11-04T07:54:34;18.23;;;12.70;;
3571;SDS011;7958;53.024;12.970;2022-11-04T07:57:01;16.20;;;11.43;;
3571;SDS011;7958;53.024;12.970;2022-11-04T07:59:28;20.07;;;12.47;;
3571;SDS011;7958;53.024;12.970;2022-11-04T08:01:55;18.47;;;12.17;;
3571;SDS011;7958;53.024;12.970;2022-11-04T08:04:21;17.13;;;11.80;;
3571;SDS011;7958;53.024;12.970;2022-11-04T08:06:48;19.80;;;12.07;;
3571;SDS011;7958;53.024;12.970;2022-11-04T08:09:14;15.70;;;11.13;;
3571;SDS011;7958;53.024;12.970;2022-11-04T08:11:41;13.10;;;9.63;;
3571;SDS011;7958;53.024;12.970;2022-11-04T08:14:07;16.63;;;11.63;;
3571;SDS011;7958;53.024;12.970;2022-11-04T08:16:35;17.77;;;12.33;;
3571;SDS011;7958;53.024;12.970;2022-11-04T08:19:01;16.90;;;11.20;;
3571;SDS011;7958;53.024;12.970;2022-11-04T08:21:28;15.97;;;11.20;;
3571;SDS011;7958;53.024;12.970;2022-11-04T08:23:55;14.33;;;10.77;;
3571;SDS011;7958;53.024;12.970;2022-11-04T08:26:22;21.53;;;12.60;;
3571;SDS011;7958;53.024;12.970;2022-11-04T08:28:49;19.40;;;12.93;;
3571;SDS011;7958;53.024;12.970;2022-11-04T08:31:16;18.03;;;11.23;;
3571;SDS011;7958;53.024;12.970;2022-11-04T08:33:46;15.03;;;10.50;;
3571;SDS011;7958;53.024;12.970;2022-11-04T08:36:13;15.97;;;11.20;;
3571;SDS011;7958;53.024;12.970;2022-11-04T08:38:41;19.60;;;12.27;;
3571;SDS011;7958;53.024;12.970;2022-11-04T08:41:08;16.97;;;11.87;;
3571;SDS011;7958;53.024;12.970;2022-11-04T08:43:35;23.47;;;13.30;;
3571;SDS011;7958;53.024;12.970;2022-11-04T08:46:03;17.90;;;11.50;;
3571;SDS011;7958;53.024;12.970;2022-11-04T08:48:30;14.70;;;10.70;;
3571;SDS011;7958;53.024;12.970;2022-11-04T08:50:59;14.80;;;11.53;;
3571;SDS011;7958;53.024;12.970;2022-11-04T08:53:26;14.17;;;11.87;;
3571;SDS011;7958;53.024;12.970;2022-11-04T08:55:53;14.43;;;10.80;;
3571;SDS011;7958;53.024;12.970;2022-11-04T08:58:20;16.17;;;11.37;;
3571;SDS011;7958;53.024;12.970;2022-11-04T09:00:48;16.20;;;11.10;;
3571;SDS011;7958;53.024;12.970;2022-11-04T09:03:15;18.17;;;13.07;;
3571;SDS011;7958;53.024;12.970;2022-11-04T09:05:41;21.10;;;11.20;;
3571;SDS011;7958;53.024;12.970;2022-11-04T09:08:13;15.67;;;11.40;;
3571;SDS011;7958;53.024;12.970;2022-11-04T09:10:40;16.00;;;11.73;;
3571;SDS011;7958;53.024;12.970;2022-11-04T09:13:08;22.10;;;12.10;;
3571;SDS011;7958;53.024;12.970;2022-11-04T09:15:35;19.40;;;11.27;;
3571;SDS011;7958;53.024;12.970;2022-11-04T09:18:02;17.67;;;11.20;;
3571;SDS011;7958;53.024;12.970;2022-11-04T09:20:28;14.83;;;11.60;;
3571;SDS011;7958;53.024;12.970;2022-11-04T09:22:55;16.60;;;11.10;;
3571;SDS011;7958;53.024;12.970;2022-11-04T09:25:24;19.33;;;11.77;;
3571;SDS011;7958;53.024;12.970;2022-11-04T09:27:50;14.73;;;11.73;;
3571;SDS011;7958;53.024;12.970;2022-11-04T09:30:16;16.63;;;10.60;;
3571;SDS011;7958;53.024;12.970;2022-11-04T09:32:43;15.60;;;10.00;;
3571;SDS011;7958;53.024;12.970;2022-11-04T09:35:09;14.83;;;10.43;;
3571;SDS011;7958;53.024;12.970;2022-11-04T09:37:36;16.70;;;10.17;;
3571;SDS011;7958;53.024;12.970;2022-11-04T09:40:03;17.07;;;11.10;;
3571;SDS011;7958;53.024;12.970;2022-11-04T09:42:35;15.23;;;9.43;;
3571;SDS011;7958;53.024;12.970;2022-11-04T09:45:08;11.33;;;9.57;;
3571;SDS011;7958;53.024;12.970;2022-11-04T09:47:37;15.90;;;10.50;;
3571;SDS011;7958;53.024;12.970;2022-11-04T09:50:05;14.87;;;10.10;;
3571;SDS011;7958;53.024;12.970;2022-11-04T09:52:36;14.77;;;10.23;;
3571;SDS011;7958;53.024;12.970;2022-11-04T09:55:05;15.40;;;10.40;;
3571;SDS011;7958;53.024;12.970;2022-11-04T09:57:39;13.50;;;9.10;;
3571;SDS011;7958;53.024;12.970;2022-11-04T10:00:06;15.20;;;9.50;;
3571;SDS011;7958;53.024;12.970;2022-11-04T10:02:45;14.57;;;10.30;;
3571;SDS011;7958;53.024;12.970;2022-11-04T10:05:24;12.37;;;9.03;;
3571;SDS011;7958;53.024;12.970;2022-11-04T10:08:07;15.80;;;9.43;;
3571;SDS011;7958;53.024;12.970;2022-11-04T10:10:47;10.90;;;9.07;;
3571;SDS011;7958;53.024;12.970;2022-11-04T10:13:22;11.70;;;9.03;;
3571;SDS011;7958;53.024;12.970;2022-11-04T10:15:55;12.83;;;9.30;;
3571;SDS011;7958;53.024;12.970;2022-11-04T10:18:34;13.40;;;9.50;;
3571;SDS011;7958;53.024;12.970;2022-11-04T10:21:10;14.33;;;8.40;;
3571;SDS011;7958;53.024;12.970;2022-11-04T10:23:43;12.80;;;9.23;;
3571;SDS011;7958;53.024;12.970;2022-11-04T10:26:13;12.87;;;9.20;;
3571;SDS011;7958;53.024;12.970;2022-11-04T10:28:46;13.13;;;9.10;;
3571;SDS011;7958;53.024;12.970;2022-11-04T10:31:16;10.83;;;8.90;;
3571;SDS011;7958;53.024;12.970;2022-11-04T10:33:44;12.07;;;9.03;;
3571;SDS011;7958;53.024;12.970;2022-11-04T10:36:12;10.97;;;8.20;;
3571;SDS011;7958;53.024;12.970;2022-11-04T10:38:40;9.87;;;7.93;;
3571;SDS011;7958;53.024;12.970;2022-11-04T10:41:14;11.80;;;8.17;;
3571;SDS011;7958;53.024;12.970;2022-11-04T10:43:47;11.30;;;8.50;;
3571;SDS011;7958;53.024;12.970;2022-11-04T10:46:19;9.57;;;8.50;;
3571;SDS011;7958;53.024;12.970;2022-11-04T10:48:57;12.80;;;9.13;;
3571;SDS011;7958;53.024;12.970;2022-11-04T10:51:26;9.77;;;8.20;;
3571;SDS011;7958;53.024;12.970;2022-11-04T10:53:53;11.60;;;8.63;;
3571;SDS011;7958;53.024;12.970;2022-11-04T10:56:21;10.83;;;8.80;;
3571;SDS011;7958;53.024;12.970;2022-11-04T10:58:55;10.17;;;9.13;;
3571;SDS011;7958;53.024;12.970;2022-11-04T11:01:24;11.60;;;8.43;;
3571;SDS011;7958;53.024;12.970;2022-11-04T11:03:52;12.40;;;9.07;;
3571;SDS011;7958;53.024;12.970;2022-11-04T11:06:21;15.83;;;9.90;;
3571;SDS011;7958;53.024;12.970;2022-11-04T11:08:50;12.60;;;9.53;;
3571;SDS011;7958;53.024;12.970;2022-11-04T11:14:04;13.40;;;9.80;;
3571;SDS011;7958;53.024;12.970;2022-11-04T11:16:41;17.40;;;9.53;;
3571;SDS011;7958;53.024;12.970;2022-11-04T11:19:13;13.37;;;9.07;;
3571;SDS011;7958;53.024;12.970;2022-11-04T11:21:42;10.30;;;8.90;;
3571;SDS011;7958;53.024;12.970;2022-11-04T11:24:13;12.00;;;8.47;;
3571;SDS011;7958;53.024;12.970;2022-11-04T11:26:41;10.30;;;8.10;;
3571;SDS011;7958;53.024;12.970;2022-11-04T11:29:15;11.83;;;9.47;;
3571;SDS011;7958;53.024;12.970;2022-11-04T11:31:45;10.00;;;8.73;;
3571;SDS011;7958;53.024;12.970;2022-11-04T11:34:13;11.00;;;8.47;;
3571;SDS011;7958;53.024;12.970;2022-11-04T11:36:41;11.37;;;8.73;;
3571;SDS011;7958;53.024;12.970;2022-11-04T11:39:14;10.27;;;8.50;;
3571;SDS011;7958;53.024;12.970;2022-11-04T11:41:50;9.43;;;7.70;;
3571;SDS011;7958;53.024;12.970;2022-11-04T11:44:21;11.40;;;8.43;;
3571;SDS011;7958;53.024;12.970;2022-11-04T11:46:51;10.30;;;8.43;;
3571;SDS011;7958;53.024;12.970;2022-11-04T11:49:22;9.23;;;7.10;;
3571;SDS011;7958;53.024;12.970;2022-11-04T11:51:49;9.47;;;7.70;;
3571;SDS011;7958;53.024;12.970;2022-11-04T11:54:18;11.00;;;7.70;;
3571;SDS011;7958;53.024;12.970;2022-11-04T11:56:48;8.70;;;7.23;;
3571;SDS011;7958;53.024;12.970;2022-11-04T11:59:19;10.07;;;6.87;;
3571;SDS011;7958;53.024;12.970;2022-11-04T12:01:56;8.67;;;7.73;;
3571;SDS011;7958;53.024;12.970;2022-11-04T12:04:28;10.67;;;7.53;;
3571;SDS011;7958;53.024;12.970;2022-11-04T12:06:58;8.47;;;6.93;;
3571;SDS011;7958;53.024;12.970;2022-11-04T12:09:31;9.87;;;6.80;;
3571;SDS011;7958;53.024;12.970;2022-11-04T12:12:04;7.77;;;6.67;;
3571;SDS011;7958;53.024;12.970;2022-11-04T12:14:42;8.07;;;7.27;;
3571;SDS011;7958;53.024;12.970;2022-11-04T12:17:23;11.70;;;7.50;;
3571;SDS011;7958;53.024;12.970;2022-11-04T12:19:58;10.00;;;7.23;;
3571;SDS011;7958;53.024;12.970;2022-11-04T12:22:35;9.60;;;7.37;;
3571;SDS011;7958;53.024;12.970;2022-11-04T12:25:08;8.67;;;7.80;;
3571;SDS011;7958;53.024;12.970;2022-11-04T12:27:39;9.73;;;7.33;;
3571;SDS011;7958;53.024;12.970;2022-11-04T12:30:13;7.80;;;7.00;;
3571;SDS011;7958;53.024;12.970;2022-11-04T12:32:46;7.80;;;7.00;;
3571;SDS011;7958;53.024;12.970;2022-11-04T12:35:21;6.63;;;6.03;;
3571;SDS011;7958;53.024;12.970;2022-11-04T12:37:53;7.47;;;6.70;;
3571;SDS011;7958;53.024;12.970;2022-11-04T12:40:26;7.30;;;6.53;;
3571;SDS011;7958;53.024;12.970;2022-11-04T12:42:59;6.83;;;6.13;;
3571;SDS011;7958;53.024;12.970;2022-11-04T12:45:36;7.37;;;6.27;;
3571;SDS011;7958;53.024;12.970;2022-11-04T12:48:09;8.10;;;6.93;;
3571;SDS011;7958;53.024;12.970;2022-11-04T12:50:39;7.60;;;6.90;;
3571;SDS011;7958;53.024;12.970;2022-11-04T12:53:25;10.50;;;7.47;;
3571;SDS011;7958;53.024;12.970;2022-11-04T12:56:08;7.97;;;6.83;;
3571;SDS011;7958;53.024;12.970;2022-11-04T12:58:41;7.87;;;7.03;;
3571;SDS011;7958;53.024;12.970;2022-11-04T13:01:14;6.80;;;6.20;;
3571;SDS011;7958;53.024;12.970;2022-11-04T13:03:47;8.53;;;7.50;;
3571;SDS011;7958;53.024;12.970;2022-11-04T13:06:16;7.90;;;7.10;;
3571;SDS011;7958;53.024;12.970;2022-11-04T13:08:45;8.33;;;7.10;;
3571;SDS011;7958;53.024;12.970;2022-11-04T13:11:16;9.10;;;7.43;;
3571;SDS011;7958;53.024;12.970;2022-11-04T13:13:52;7.27;;;6.53;;
3571;SDS011;7958;53.024;12.970;2022-11-04T13:16:25;8.20;;;7.40;;
3571;SDS011;7958;53.024;12.970;2022-11-04T13:18:52;7.73;;;7.00;;
3571;SDS011;7958;53.024;12.970;2022-11-04T13:21:20;8.67;;;7.43;;
3571;SDS011;7958;53.024;12.970;2022-11-04T13:23:50;7.63;;;6.83;;
3571;SDS011;7958;53.024;12.970;2022-11-04T13:26:19;8.87;;;7.47;;
3571;SDS011;7958;53.024;12.970;2022-11-04T13:28:47;10.90;;;7.57;;
3571;SDS011;7958;53.024;12.970;2022-11-04T13:31:21;7.20;;;6.50;;
3571;SDS011;7958;53.024;12.970;2022-11-04T13:33:57;7.50;;;6.43;;
3571;SDS011;7958;53.024;12.970;2022-11-04T13:36:29;9.70;;;7.67;;
3571;SDS011;7958;53.024;12.970;2022-11-04T13:38:59;8.40;;;7.40;;
3571;SDS011;7958;53.024;12.970;2022-11-04T13:41:36;13.23;;;10.50;;
3571;SDS011;7958;53.024;12.970;2022-11-04T13:44:21;18.23;;;11.57;;
3571;SDS011;7958;53.024;12.970;2022-11-04T13:46:51;10.47;;;9.47;;
3571;SDS011;7958;53.024;12.970;2022-11-04T13:49:21;10.50;;;8.00;;
3571;SDS011;7958;53.024;12.970;2022-11-04T13:52:01;9.20;;;8.03;;
3571;SDS011;7958;53.024;12.970;2022-11-04T13:54:32;8.90;;;7.73;;
3571;SDS011;7958;53.024;12.970;2022-11-04T13:57:08;7.43;;;6.73;;
3571;SDS011;7958;53.024;12.970;2022-11-04T13:59:37;7.63;;;6.93;;
3571;SDS011;7958;53.024;12.970;2022-11-04T14:11:05;8.60;;;7.37;;
3571;SDS011;7958;53.024;12.970;2022-11-04T14:16:41;6.70;;;6.10;;
3571;SDS011;7958;53.024;12.970;2022-11-04T14:22:16;6.30;;;5.70;;
3571;SDS011;7958;53.024;12.970;2022-11-04T14:24:42;6.10;;;5.57;;
3571;SDS011;7958;53.024;12.970;2022-11-04T14:27:21;6.17;;;5.67;;
3571;SDS011;7958;53.024;12.970;2022-11-04T14:29:49;8.50;;;7.70;;
3571;SDS011;7958;53.024;12.970;2022-11-04T14:32:17;8.50;;;7.70;;
3571;SDS011;7958;53.024;12.970;2022-11-04T14:34:56;6.97;;;6.30;;
3571;SDS011;7958;53.024;12.970;2022-11-04T14:37:25;6.07;;;5.60;;
3571;SDS011;7958;53.024;12.970;2022-11-04T14:39:54;8.53;;;7.00;;
3571;SDS011;7958;53.024;12.970;2022-11-04T14:45:08;6.80;;;6.20;;
3571;SDS011;7958;53.024;12.970;2022-11-04T14:47:42;10.70;;;7.53;;
3571;SDS011;7958;53.024;12.970;2022-11-04T14:50:15;7.10;;;6.40;;
3571;SDS011;7958;53.024;12.970;2022-11-04T14:52:46;9.57;;;8.57;;
3571;SDS011;7958;53.024;12.970;2022-11-04T14:55:16;7.80;;;7.00;;
3571;SDS011;7958;53.024;12.970;2022-11-04T14:57:44;9.00;;;7.70;;
3571;SDS011;7958;53.024;12.970;2022-11-04T15:00:27;6.70;;;6.10;;
3571;SDS011;7958;53.024;12.970;2022-11-04T15:02:59;6.53;;;5.87;;
3571;SDS011;7958;53.024;12.970;2022-11-04T15:05:29;7.10;;;6.13;;
3571;SDS011;7958;53.024;12.970;2022-11-04T15:08:01;7.80;;;5.73;;
3571;SDS011;7958;53.024;12.970;2022-11-04T15:10:28;6.90;;;6.20;;
3571;SDS011;7958;53.024;12.970;2022-11-04T15:12:57;6.83;;;6.10;;
3571;SDS011;7958;53.024;12.970;2022-11-04T15:15:27;5.33;;;4.83;;
3571;SDS011;7958;53.024;12.970;2022-11-04T15:17:58;6.40;;;5.80;;
3571;SDS011;7958;53.024;12.970;2022-11-04T15:20:26;6.23;;;5.63;;
3571;SDS011;7958;53.024;12.970;2022-11-04T15:22:55;7.80;;;6.60;;
3571;SDS011;7958;53.024;12.970;2022-11-04T15:25:24;7.77;;;6.80;;
3571;SDS011;7958;53.024;12.970;2022-11-04T15:27:50;9.63;;;7.13;;
3571;SDS011;7958;53.024;12.970;2022-11-04T15:30:18;8.47;;;7.60;;